• Join FlightAware (Why Join?)
  • Login
  • US Flag 
Trick or treat! (Boo!!) 
02:59AM EDT


 

Airport Tracker/Info


-or-


 

Live Flight TrackerFlight Track Log ✈ JZA8138 ✈ 15-Jun-2013 ✈ CYYC - CYEG

Flight Track Log - Related Links

Times and Time Zones

All times are in EDT time to prevent confusion due to time zone crossing. See the JZA8138 flight status page for this flight to view local times or setup timezone preferences in your user account.

Time Position Orientation Groundspeed Altitude Reporting Facility
EDT Latitude Longitude Course Direction KTS MPH feet Rate Location/Type
12:24PM 51.0333 -114.1000 360° North 20 23 3,500  Level Edmonton Center
12:25PM 51.0333 -114.1000 360° North 50 58 3,500  Level Edmonton Center
12:28PM 51.0500 -114.1000 360° North 20 23 3,500  Level Edmonton Center
12:30PM 51.1138 -114.0860 90° East  Level Estimated
12:31PM 51.0833 -114.0333 90° East 20 23 3,500  Level Edmonton Center
12:33PM 51.0833 -114.0333 279° West 30 35 3,500  Level Edmonton Center
12:35PM 51.0833 -114.0333 279° West 10 12 3,600 420 Climbing Edmonton Center
12:36PM 51.1167 -114.0333 360° North 120 138 4,900 1,380 Climbing Edmonton Center
12:37PM 51.1500 -114.0500 343° North 140 161 6,400 1,620 Climbing Edmonton Center
12:38PM 51.1833 -114.0500 360° North 140 161 8,200 1,740 Climbing Edmonton Center
12:39PM 51.2333 -114.0333 12° North 150 173 9,900 1,620 Climbing Edmonton Center
12:40PM 51.2667 -114.0500 343° North 140 161 11,500 1,620 Climbing Edmonton Center
12:41PM 51.3000 -114.0500 360° North 140 161 13,200 1,500 Climbing Edmonton Center
12:42PM 51.3500 -114.0667 348° North 150 173 14,500 1,140 Climbing Edmonton Center
12:43PM 51.4000 -114.0500 12° North 180 207 15,500 720 Climbing Edmonton Center
12:44PM 51.4500 -114.0500 360° North 200 230 16,000 240 Climbing Edmonton Center
12:45PM 51.5167 -114.0667 351° North 230 265 16,000  Level Edmonton Center
12:46PM 51.5833 -114.0833 351° North 250 288 16,000  Level Edmonton Center
12:47PM 51.6667 -114.0667 North 250 288 16,000  Level Edmonton Center
12:48PM 51.7333 -114.0833 351° North 250 288 16,000 -60 Level Edmonton Center
12:49PM 51.8000 -114.1000 351° North 250 288 15,900 -60 Descending Edmonton Center
12:50PM 51.8833 -114.1167 353° North 250 288 15,900  Level Edmonton Center
12:51PM 51.9500 -114.1333 351° North 250 288 16,000  Climbing Edmonton Center
12:52PM 52.0167 -114.1167 North 260 299 16,000  Level Edmonton Center
12:53PM 52.0833 -114.1333 351° North 260 299 16,000  Level Edmonton Center
12:54PM 52.1500 -114.1500 351° North 250 288 16,000  Level Edmonton Center
12:55PM 52.2333 -114.1500 360° North 250 288 16,000 -60 Level Edmonton Center
12:56PM 52.3000 -114.1500 360° North 250 288 15,900  Descending Edmonton Center
12:57PM 52.3667 -114.1667 351° North 250 288 16,000 60 Climbing Edmonton Center
12:58PM 52.4333 -114.1667 360° North 250 288 16,100  Climbing Edmonton Center
12:59PM 52.5000 -114.1667 360° North 250 288 16,100  Level Edmonton Center
01:00PM 52.5667 -114.1667 360° North 250 288 16,100 -120 Level Edmonton Center
01:01PM 52.6500 -114.1167 20° North 260 299 15,900 -540 Descending Edmonton Center
01:02PM 52.7167 -114.0833 17° North 260 299 15,100 -900 Descending Edmonton Center
01:03PM 52.7833 -114.0333 24° Northeast 270 311 14,100 -960 Descending Edmonton Center
01:04PM 52.8667 -114.0333 360° North 260 299 13,200 -780 Descending Edmonton Center
01:05PM 52.9333 -113.9833 24° Northeast 260 299 12,600 -960 Descending Edmonton Center
01:06PM 53.0000 -113.9667 North 240 276 11,300 -1,080 Descending Edmonton Center
01:07PM 53.0667 -113.9333 17° North 240 276 10,500 -1,140 Descending Edmonton Center
01:08PM 53.1333 -113.9167 North 250 288 9,100 -1,380 Descending Edmonton Center
01:09PM 53.2000 -113.8500 31° Northeast 250 288 7,800 -1,380 Descending Edmonton Center
01:10PM 53.2500 -113.8000 31° Northeast 240 276 6,400 -1,440 Descending Edmonton Center
01:11PM 53.3000 -113.7333 39° Northeast 220 253 5,000 -960 Descending Edmonton Center
01:12PM 53.3333 -113.6833 42° Northeast 190 219 4,500 -300 Descending Edmonton Center
01:13PM 53.4000 -113.6333 24° Northeast 190 219 4,500  Level Edmonton Center
01:14PM 53.4333 -113.5833 42° Northeast 200 230 4,500  Level Edmonton Center
01:15PM 53.4667 -113.5333 42° Northeast 190 219 4,600  Climbing Edmonton Center
01:16PM 53.4500 -113.4500 109° East 220 253 4,600 -120 Level Edmonton Center
01:17PM 53.4000 -113.4667 191° South 180 207 4,400 -240 Descending Edmonton Center